sensor_id;sensor_type;location;lat;lon;timestamp;temperature;humidity
40153;DHT22;26371;56.992;23.912;2024-01-30T00:00:05;1.30;99.90
40153;DHT22;26371;56.992;23.912;2024-01-30T00:02:33;1.30;99.90
40153;DHT22;26371;56.992;23.912;2024-01-30T00:05:02;1.30;99.90
40153;DHT22;26371;56.992;23.912;2024-01-30T00:07:32;1.30;99.90
40153;DHT22;26371;56.992;23.912;2024-01-30T00:10:02;1.30;99.90
40153;DHT22;26371;56.992;23.912;2024-01-30T00:12:33;1.30;99.90
40153;DHT22;26371;56.992;23.912;2024-01-30T00:15:02;1.30;99.90
40153;DHT22;26371;56.992;23.912;2024-01-30T00:17:32;1.40;99.90
40153;DHT22;26371;56.992;23.912;2024-01-30T00:20:02;1.30;99.90
40153;DHT22;26371;56.992;23.912;2024-01-30T00:22:33;1.40;99.90
40153;DHT22;26371;56.992;23.912;2024-01-30T00:25:03;1.40;99.90
40153;DHT22;26371;56.992;23.912;2024-01-30T00:27:32;1.40;99.90
40153;DHT22;26371;56.992;23.912;2024-01-30T00:30:03;1.40;99.90
40153;DHT22;26371;56.992;23.912;2024-01-30T00:32:32;1.30;99.90
40153;DHT22;26371;56.992;23.912;2024-01-30T00:35:00;1.30;99.90
40153;DHT22;26371;56.992;23.912;2024-01-30T00:37:29;1.30;99.90
40153;DHT22;26371;56.992;23.912;2024-01-30T00:40:00;1.30;99.90
40153;DHT22;26371;56.992;23.912;2024-01-30T00:42:30;1.30;99.90
40153;DHT22;26371;56.992;23.912;2024-01-30T00:44:59;1.30;99.90
40153;DHT22;26371;56.992;23.912;2024-01-30T00:47:27;1.20;99.90
40153;DHT22;26371;56.992;23.912;2024-01-30T00:49:56;1.20;99.90
40153;DHT22;26371;56.992;23.912;2024-01-30T00:52:25;1.20;99.90
40153;DHT22;26371;56.992;23.912;2024-01-30T00:54:54;1.20;99.90
40153;DHT22;26371;56.992;23.912;2024-01-30T00:57:22;1.20;99.90
40153;DHT22;26371;56.992;23.912;2024-01-30T00:59:53;1.20;99.90
40153;DHT22;26371;56.992;23.912;2024-01-30T01:02:21;1.10;99.90
40153;DHT22;26371;56.992;23.912;2024-01-30T01:04:50;1.10;99.90
40153;DHT22;26371;56.992;23.912;2024-01-30T01:07:19;1.10;99.90
40153;DHT22;26371;56.992;23.912;2024-01-30T01:09:48;1.10;99.90
40153;DHT22;26371;56.992;23.912;2024-01-30T01:12:19;1.10;99.90
40153;DHT22;26371;56.992;23.912;2024-01-30T01:14:48;1.10;99.90
40153;DHT22;26371;56.992;23.912;2024-01-30T01:17:18;1.10;99.90
40153;DHT22;26371;56.992;23.912;2024-01-30T01:19:46;1.10;99.90
40153;DHT22;26371;56.992;23.912;2024-01-30T01:22:16;1.00;99.90
40153;DHT22;26371;56.992;23.912;2024-01-30T01:24:45;1.10;99.90
40153;DHT22;26371;56.992;23.912;2024-01-30T01:27:14;1.00;99.90
40153;DHT22;26371;56.992;23.912;2024-01-30T01:29:43;1.00;99.90
40153;DHT22;26371;56.992;23.912;2024-01-30T01:32:12;1.00;99.90
40153;DHT22;26371;56.992;23.912;2024-01-30T01:34:43;1.00;99.90
40153;DHT22;26371;56.992;23.912;2024-01-30T01:37:12;1.00;99.90
40153;DHT22;26371;56.992;23.912;2024-01-30T01:39:41;1.00;99.90
40153;DHT22;26371;56.992;23.912;2024-01-30T01:42:09;1.00;99.90
40153;DHT22;26371;56.992;23.912;2024-01-30T01:44:38;1.00;99.90
40153;DHT22;26371;56.992;23.912;2024-01-30T01:47:07;1.00;99.90
40153;DHT22;26371;56.992;23.912;2024-01-30T01:49:35;0.90;99.90
40153;DHT22;26371;56.992;23.912;2024-01-30T01:52:06;1.00;99.90
40153;DHT22;26371;56.992;23.912;2024-01-30T01:54:35;1.00;99.90
40153;DHT22;26371;56.992;23.912;2024-01-30T01:57:04;1.00;99.90
40153;DHT22;26371;56.992;23.912;2024-01-30T01:59:33;1.00;99.90
40153;DHT22;26371;56.992;23.912;2024-01-30T02:02:02;1.00;99.90
40153;DHT22;26371;56.992;23.912;2024-01-30T02:04:32;1.00;99.90
40153;DHT22;26371;56.992;23.912;2024-01-30T02:07:00;1.10;99.90
40153;DHT22;26371;56.992;23.912;2024-01-30T02:09:31;1.10;99.90
40153;DHT22;26371;56.992;23.912;2024-01-30T02:12:00;1.00;99.90
40153;DHT22;26371;56.992;23.912;2024-01-30T02:14:28;1.00;99.90
40153;DHT22;26371;56.992;23.912;2024-01-30T02:16:57;1.00;99.90
40153;DHT22;26371;56.992;23.912;2024-01-30T02:19:26;1.10;99.90
40153;DHT22;26371;56.992;23.912;2024-01-30T02:21:56;1.10;99.90
40153;DHT22;26371;56.992;23.912;2024-01-30T02:24:25;1.10;99.90
40153;DHT22;26371;56.992;23.912;2024-01-30T02:26:54;1.10;99.90
40153;DHT22;26371;56.992;23.912;2024-01-30T02:29:22;1.10;99.90
40153;DHT22;26371;56.992;23.912;2024-01-30T02:31:51;1.20;99.90
40153;DHT22;26371;56.992;23.912;2024-01-30T02:34:20;1.10;99.90
40153;DHT22;26371;56.992;23.912;2024-01-30T02:36:49;1.10;99.90
40153;DHT22;26371;56.992;23.912;2024-01-30T02:39:19;1.20;99.90
40153;DHT22;26371;56.992;23.912;2024-01-30T02:41:48;1.20;99.90
40153;DHT22;26371;56.992;23.912;2024-01-30T02:44:17;1.20;99.90
40153;DHT22;26371;56.992;23.912;2024-01-30T02:46:46;1.20;99.90
40153;DHT22;26371;56.992;23.912;2024-01-30T02:49:14;1.20;99.90
40153;DHT22;26371;56.992;23.912;2024-01-30T02:51:43;1.20;99.90
40153;DHT22;26371;56.992;23.912;2024-01-30T02:54:12;1.20;99.90
40153;DHT22;26371;56.992;23.912;2024-01-30T02:56:42;1.20;99.90
40153;DHT22;26371;56.992;23.912;2024-01-30T02:59:10;1.20;99.90
40153;DHT22;26371;56.992;23.912;2024-01-30T03:01:43;1.10;99.90
40153;DHT22;26371;56.992;23.912;2024-01-30T03:04:12;1.10;99.90
40153;DHT22;26371;56.992;23.912;2024-01-30T03:06:45;1.10;99.90
40153;DHT22;26371;56.992;23.912;2024-01-30T03:09:16;1.10;99.90
40153;DHT22;26371;56.992;23.912;2024-01-30T03:11:47;1.10;99.90
40153;DHT22;26371;56.992;23.912;2024-01-30T03:14:16;1.20;99.90
40153;DHT22;26371;56.992;23.912;2024-01-30T03:16:44;1.20;99.90
40153;DHT22;26371;56.992;23.912;2024-01-30T03:19:14;1.10;99.90
40153;DHT22;26371;56.992;23.912;2024-01-30T03:21:43;1.20;99.90
40153;DHT22;26371;56.992;23.912;2024-01-30T03:24:12;1.10;99.90
40153;DHT22;26371;56.992;23.912;2024-01-30T03:26:41;1.10;99.90
40153;DHT22;26371;56.992;23.912;2024-01-30T03:29:11;1.10;99.90
40153;DHT22;26371;56.992;23.912;2024-01-30T03:31:42;1.10;99.90
40153;DHT22;26371;56.992;23.912;2024-01-30T03:34:11;1.00;99.90
40153;DHT22;26371;56.992;23.912;2024-01-30T03:36:40;1.10;99.90
40153;DHT22;26371;56.992;23.912;2024-01-30T03:39:09;1.00;99.90
40153;DHT22;26371;56.992;23.912;2024-01-30T03:41:37;1.10;99.90
40153;DHT22;26371;56.992;23.912;2024-01-30T03:44:06;1.10;99.90
40153;DHT22;26371;56.992;23.912;2024-01-30T03:46:36;1.10;99.90
40153;DHT22;26371;56.992;23.912;2024-01-30T03:49:05;1.10;99.90
40153;DHT22;26371;56.992;23.912;2024-01-30T03:51:34;1.00;99.90
40153;DHT22;26371;56.992;23.912;2024-01-30T03:54:02;1.00;99.90
40153;DHT22;26371;56.992;23.912;2024-01-30T03:56:31;1.00;99.90
40153;DHT22;26371;56.992;23.912;2024-01-30T03:59:00;1.00;99.90
40153;DHT22;26371;56.992;23.912;2024-01-30T04:01:30;1.00;99.90
40153;DHT22;26371;56.992;23.912;2024-01-30T04:04:00;1.00;99.90
40153;DHT22;26371;56.992;23.912;2024-01-30T04:06:29;1.00;99.90
40153;DHT22;26371;56.992;23.912;2024-01-30T04:08:57;1.00;99.90
40153;DHT22;26371;56.992;23.912;2024-01-30T04:11:26;1.00;99.90
40153;DHT22;26371;56.992;23.912;2024-01-30T04:13:55;0.90;99.90
40153;DHT22;26371;56.992;23.912;2024-01-30T04:16:23;0.90;99.90
40153;DHT22;26371;56.992;23.912;2024-01-30T04:18:53;0.90;99.90
40153;DHT22;26371;56.992;23.912;2024-01-30T04:21:25;0.80;99.90
40153;DHT22;26371;56.992;23.912;2024-01-30T04:23:54;0.90;99.90
40153;DHT22;26371;56.992;23.912;2024-01-30T04:26:22;0.90;99.90
40153;DHT22;26371;56.992;23.912;2024-01-30T04:28:52;0.90;99.90
40153;DHT22;26371;56.992;23.912;2024-01-30T04:31:21;0.90;99.90
40153;DHT22;26371;56.992;23.912;2024-01-30T04:33:50;0.90;99.90
40153;DHT22;26371;56.992;23.912;2024-01-30T04:36:19;0.90;99.90
40153;DHT22;26371;56.992;23.912;2024-01-30T04:38:49;0.90;99.90
40153;DHT22;26371;56.992;23.912;2024-01-30T04:41:17;0.90;99.90
40153;DHT22;26371;56.992;23.912;2024-01-30T04:43:46;0.90;99.90
40153;DHT22;26371;56.992;23.912;2024-01-30T04:46:15;0.80;99.90
40153;DHT22;26371;56.992;23.912;2024-01-30T04:48:43;0.90;99.90
40153;DHT22;26371;56.992;23.912;2024-01-30T04:51:13;0.80;99.90
40153;DHT22;26371;56.992;23.912;2024-01-30T04:53:42;0.80;99.90
40153;DHT22;26371;56.992;23.912;2024-01-30T04:56:12;0.80;99.90
40153;DHT22;26371;56.992;23.912;2024-01-30T04:58:41;0.80;99.90
40153;DHT22;26371;56.992;23.912;2024-01-30T05:01:09;0.80;99.90
40153;DHT22;26371;56.992;23.912;2024-01-30T05:03:38;0.80;99.90
40153;DHT22;26371;56.992;23.912;2024-01-30T05:06:07;0.80;99.90
40153;DHT22;26371;56.992;23.912;2024-01-30T05:08:36;0.80;99.90
40153;DHT22;26371;56.992;23.912;2024-01-30T05:11:05;0.80;99.90
40153;DHT22;26371;56.992;23.912;2024-01-30T05:13:36;0.80;99.90
40153;DHT22;26371;56.992;23.912;2024-01-30T05:16:05;0.80;99.90
40153;DHT22;26371;56.992;23.912;2024-01-30T05:18:34;0.80;99.90
40153;DHT22;26371;56.992;23.912;2024-01-30T05:21:03;0.80;99.90
40153;DHT22;26371;56.992;23.912;2024-01-30T05:23:32;0.80;99.90
40153;DHT22;26371;56.992;23.912;2024-01-30T05:26:00;0.80;99.90
40153;DHT22;26371;56.992;23.912;2024-01-30T05:28:32;0.70;99.90
40153;DHT22;26371;56.992;23.912;2024-01-30T05:31:08;0.80;99.90
40153;DHT22;26371;56.992;23.912;2024-01-30T05:33:37;0.80;99.90
40153;DHT22;26371;56.992;23.912;2024-01-30T05:36:06;0.80;99.90
40153;DHT22;26371;56.992;23.912;2024-01-30T05:38:35;0.80;99.90
40153;DHT22;26371;56.992;23.912;2024-01-30T05:41:23;0.80;99.90
40153;DHT22;26371;56.992;23.912;2024-01-30T05:43:52;0.70;99.90
40153;DHT22;26371;56.992;23.912;2024-01-30T05:46:22;0.70;99.90
40153;DHT22;26371;56.992;23.912;2024-01-30T05:48:52;0.70;99.90
40153;DHT22;26371;56.992;23.912;2024-01-30T05:51:20;0.70;99.90
40153;DHT22;26371;56.992;23.912;2024-01-30T05:53:49;0.70;99.90
40153;DHT22;26371;56.992;23.912;2024-01-30T05:56:18;0.70;99.90
40153;DHT22;26371;56.992;23.912;2024-01-30T05:58:47;0.70;99.90
40153;DHT22;26371;56.992;23.912;2024-01-30T06:01:18;0.70;99.90
40153;DHT22;26371;56.992;23.912;2024-01-30T06:03:49;0.70;99.90
40153;DHT22;26371;56.992;23.912;2024-01-30T06:06:17;0.70;99.90
40153;DHT22;26371;56.992;23.912;2024-01-30T06:08:48;0.70;99.90
40153;DHT22;26371;56.992;23.912;2024-01-30T06:11:17;0.70;99.90
40153;DHT22;26371;56.992;23.912;2024-01-30T06:13:45;0.70;99.90
40153;DHT22;26371;56.992;23.912;2024-01-30T06:16:15;0.80;99.90
40153;DHT22;26371;56.992;23.912;2024-01-30T06:18:44;0.80;99.90
40153;DHT22;26371;56.992;23.912;2024-01-30T06:21:14;0.80;99.90
40153;DHT22;26371;56.992;23.912;2024-01-30T06:23:42;0.80;99.90
40153;DHT22;26371;56.992;23.912;2024-01-30T06:26:11;0.80;99.90
40153;DHT22;26371;56.992;23.912;2024-01-30T06:28:40;0.80;99.90
40153;DHT22;26371;56.992;23.912;2024-01-30T06:31:09;0.90;99.90
40153;DHT22;26371;56.992;23.912;2024-01-30T06:33:37;0.80;99.90
40153;DHT22;26371;56.992;23.912;2024-01-30T06:36:06;0.80;99.90
40153;DHT22;26371;56.992;23.912;2024-01-30T06:38:36;0.80;99.90
40153;DHT22;26371;56.992;23.912;2024-01-30T06:41:05;0.80;99.90
40153;DHT22;26371;56.992;23.912;2024-01-30T06:43:34;0.90;99.90
40153;DHT22;26371;56.992;23.912;2024-01-30T06:46:03;0.90;99.90
40153;DHT22;26371;56.992;23.912;2024-01-30T06:48:32;0.90;99.90
40153;DHT22;26371;56.992;23.912;2024-01-30T06:51:00;0.90;99.90
40153;DHT22;26371;56.992;23.912;2024-01-30T06:53:29;0.90;99.90
40153;DHT22;26371;56.992;23.912;2024-01-30T06:55:59;0.80;99.90
40153;DHT22;26371;56.992;23.912;2024-01-30T06:58:27;0.80;99.90
40153;DHT22;26371;56.992;23.912;2024-01-30T07:00:56;0.80;99.90
40153;DHT22;26371;56.992;23.912;2024-01-30T07:03:25;0.80;99.90
40153;DHT22;26371;56.992;23.912;2024-01-30T07:05:54;0.80;99.90
40153;DHT22;26371;56.992;23.912;2024-01-30T07:08:24;0.80;99.90
40153;DHT22;26371;56.992;23.912;2024-01-30T07:10:54;0.80;99.90
40153;DHT22;26371;56.992;23.912;2024-01-30T07:13:29;0.80;99.90
40153;DHT22;26371;56.992;23.912;2024-01-30T07:15:58;0.90;99.90
40153;DHT22;26371;56.992;23.912;2024-01-30T07:18:26;1.00;99.90
40153;DHT22;26371;56.992;23.912;2024-01-30T07:20:56;1.00;99.90
40153;DHT22;26371;56.992;23.912;2024-01-30T07:23:24;0.90;99.90
40153;DHT22;26371;56.992;23.912;2024-01-30T07:25:53;1.00;99.90
40153;DHT22;26371;56.992;23.912;2024-01-30T07:28:22;1.00;99.90
40153;DHT22;26371;56.992;23.912;2024-01-30T07:30:52;1.10;99.90
40153;DHT22;26371;56.992;23.912;2024-01-30T07:33:21;1.10;99.90
40153;DHT22;26371;56.992;23.912;2024-01-30T07:35:51;1.00;99.90
40153;DHT22;26371;56.992;23.912;2024-01-30T07:38:20;1.00;99.90
40153;DHT22;26371;56.992;23.912;2024-01-30T07:40:49;1.00;99.90
40153;DHT22;26371;56.992;23.912;2024-01-30T07:43:18;1.00;99.90
40153;DHT22;26371;56.992;23.912;2024-01-30T07:45:47;1.10;99.90
40153;DHT22;26371;56.992;23.912;2024-01-30T07:48:18;1.20;99.90
40153;DHT22;26371;56.992;23.912;2024-01-30T07:50:47;1.20;99.90
40153;DHT22;26371;56.992;23.912;2024-01-30T07:53:16;1.20;99.90
40153;DHT22;26371;56.992;23.912;2024-01-30T07:55:45;1.20;99.90
40153;DHT22;26371;56.992;23.912;2024-01-30T07:58:14;1.10;99.90
40153;DHT22;26371;56.992;23.912;2024-01-30T08:00:44;1.10;99.90
40153;DHT22;26371;56.992;23.912;2024-01-30T08:03:13;1.10;99.90
40153;DHT22;26371;56.992;23.912;2024-01-30T08:05:45;1.20;99.90
40153;DHT22;26371;56.992;23.912;2024-01-30T08:08:13;1.20;99.90
40153;DHT22;26371;56.992;23.912;2024-01-30T08:10:42;1.30;99.90
40153;DHT22;26371;56.992;23.912;2024-01-30T08:13:11;1.30;99.90
40153;DHT22;26371;56.992;23.912;2024-01-30T08:15:39;1.30;99.90
40153;DHT22;26371;56.992;23.912;2024-01-30T08:18:08;1.30;99.90
40153;DHT22;26371;56.992;23.912;2024-01-30T08:20:37;1.40;99.90
40153;DHT22;26371;56.992;23.912;2024-01-30T08:23:07;1.40;99.90
40153;DHT22;26371;56.992;23.912;2024-01-30T08:25:36;1.40;99.90
40153;DHT22;26371;56.992;23.912;2024-01-30T08:28:05;1.40;99.90
40153;DHT22;26371;56.992;23.912;2024-01-30T08:30:34;1.40;99.90
40153;DHT22;26371;56.992;23.912;2024-01-30T08:33:03;1.50;99.90
40153;DHT22;26371;56.992;23.912;2024-01-30T08:35:31;1.50;99.90
40153;DHT22;26371;56.992;23.912;2024-01-30T08:38:00;1.50;99.90
40153;DHT22;26371;56.992;23.912;2024-01-30T08:40:31;1.50;99.90
40153;DHT22;26371;56.992;23.912;2024-01-30T08:43:00;1.50;99.90
40153;DHT22;26371;56.992;23.912;2024-01-30T08:45:31;1.60;99.90
40153;DHT22;26371;56.992;23.912;2024-01-30T08:47:59;1.50;99.90
40153;DHT22;26371;56.992;23.912;2024-01-30T08:50:28;1.60;99.90
40153;DHT22;26371;56.992;23.912;2024-01-30T08:52:56;1.70;99.90
40153;DHT22;26371;56.992;23.912;2024-01-30T08:55:25;1.70;99.90
40153;DHT22;26371;56.992;23.912;2024-01-30T08:57:55;1.70;99.90
40153;DHT22;26371;56.992;23.912;2024-01-30T09:00:24;1.70;99.90
40153;DHT22;26371;56.992;23.912;2024-01-30T09:02:53;1.70;99.90
40153;DHT22;26371;56.992;23.912;2024-01-30T09:05:21;1.80;99.90
40153;DHT22;26371;56.992;23.912;2024-01-30T09:07:50;1.90;99.90
40153;DHT22;26371;56.992;23.912;2024-01-30T09:10:19;1.90;99.90
40153;DHT22;26371;56.992;23.912;2024-01-30T09:12:48;2.00;99.90
40153;DHT22;26371;56.992;23.912;2024-01-30T09:15:18;2.00;99.90
40153;DHT22;26371;56.992;23.912;2024-01-30T09:17:48;2.00;99.90
40153;DHT22;26371;56.992;23.912;2024-01-30T09:20:18;2.00;99.90
40153;DHT22;26371;56.992;23.912;2024-01-30T09:22:49;2.00;99.90
40153;DHT22;26371;56.992;23.912;2024-01-30T09:25:17;2.00;99.90
40153;DHT22;26371;56.992;23.912;2024-01-30T09:27:46;2.00;99.90
40153;DHT22;26371;56.992;23.912;2024-01-30T09:30:16;2.00;99.90
40153;DHT22;26371;56.992;23.912;2024-01-30T09:32:46;2.10;99.90
40153;DHT22;26371;56.992;23.912;2024-01-30T09:35:14;2.30;99.90
40153;DHT22;26371;56.992;23.912;2024-01-30T09:37:43;2.30;99.90
40153;DHT22;26371;56.992;23.912;2024-01-30T09:40:11;2.30;99.90
40153;DHT22;26371;56.992;23.912;2024-01-30T09:42:40;2.40;99.90
40153;DHT22;26371;56.992;23.912;2024-01-30T09:45:11;2.40;99.90
40153;DHT22;26371;56.992;23.912;2024-01-30T09:47:41;2.40;99.90
40153;DHT22;26371;56.992;23.912;2024-01-30T09:50:11;2.30;99.90
40153;DHT22;26371;56.992;23.912;2024-01-30T09:52:40;2.30;99.90
40153;DHT22;26371;56.992;23.912;2024-01-30T09:55:08;2.30;99.90
40153;DHT22;26371;56.992;23.912;2024-01-30T09:57:37;2.30;99.90
40153;DHT22;26371;56.992;23.912;2024-01-30T10:00:06;2.30;99.90
40153;DHT22;26371;56.992;23.912;2024-01-30T10:02:39;2.30;99.90
40153;DHT22;26371;56.992;23.912;2024-01-30T10:05:11;2.30;99.90
40153;DHT22;26371;56.992;23.912;2024-01-30T10:07:49;2.30;99.90
40153;DHT22;26371;56.992;23.912;2024-01-30T10:10:19;2.30;99.90
40153;DHT22;26371;56.992;23.912;2024-01-30T10:12:47;2.30;99.90
40153;DHT22;26371;56.992;23.912;2024-01-30T10:15:16;2.40;99.90
40153;DHT22;26371;56.992;23.912;2024-01-30T10:17:45;2.40;99.90
40153;DHT22;26371;56.992;23.912;2024-01-30T10:20:15;2.40;99.90
40153;DHT22;26371;56.992;23.912;2024-01-30T10:22:45;2.40;99.90
40153;DHT22;26371;56.992;23.912;2024-01-30T10:25:13;2.40;99.90
40153;DHT22;26371;56.992;23.912;2024-01-30T10:27:42;2.40;99.90
40153;DHT22;26371;56.992;23.912;2024-01-30T10:30:11;2.50;99.90
40153;DHT22;26371;56.992;23.912;2024-01-30T10:32:40;2.50;99.90
40153;DHT22;26371;56.992;23.912;2024-01-30T10:35:08;2.50;99.90
40153;DHT22;26371;56.992;23.912;2024-01-30T10:37:38;2.60;99.90
40153;DHT22;26371;56.992;23.912;2024-01-30T10:40:07;2.60;99.90
40153;DHT22;26371;56.992;23.912;2024-01-30T10:42:37;2.70;99.90
40153;DHT22;26371;56.992;23.912;2024-01-30T10:45:07;2.70;99.90
40153;DHT22;26371;56.992;23.912;2024-01-30T10:47:36;2.70;99.90
40153;DHT22;26371;56.992;23.912;2024-01-30T10:50:05;2.80;99.90
40153;DHT22;26371;56.992;23.912;2024-01-30T10:52:35;2.80;99.90
40153;DHT22;26371;56.992;23.912;2024-01-30T10:55:05;2.80;99.90
40153;DHT22;26371;56.992;23.912;2024-01-30T10:57:35;2.80;99.90
40153;DHT22;26371;56.992;23.912;2024-01-30T11:00:05;2.80;99.90
40153;DHT22;26371;56.992;23.912;2024-01-30T11:02:37;2.80;99.90
40153;DHT22;26371;56.992;23.912;2024-01-30T11:05:07;2.80;99.90
40153;DHT22;26371;56.992;23.912;2024-01-30T11:07:38;2.80;99.90
40153;DHT22;26371;56.992;23.912;2024-01-30T11:10:08;2.80;99.90
40153;DHT22;26371;56.992;23.912;2024-01-30T11:12:40;2.80;99.90
40153;DHT22;26371;56.992;23.912;2024-01-30T11:15:12;2.80;99.90
40153;DHT22;26371;56.992;23.912;2024-01-30T11:17:44;2.90;99.90
40153;DHT22;26371;56.992;23.912;2024-01-30T11:20:14;2.90;99.90
40153;DHT22;26371;56.992;23.912;2024-01-30T11:22:44;3.00;99.90
40153;DHT22;26371;56.992;23.912;2024-01-30T11:25:15;3.00;99.90
40153;DHT22;26371;56.992;23.912;2024-01-30T11:27:44;3.00;99.90
40153;DHT22;26371;56.992;23.912;2024-01-30T11:30:22;3.00;99.90
40153;DHT22;26371;56.992;23.912;2024-01-30T11:42:48;3.20;99.90
40153;DHT22;26371;56.992;23.912;2024-01-30T11:45:17;3.20;99.90
40153;DHT22;26371;56.992;23.912;2024-01-30T11:47:45;3.20;99.90
40153;DHT22;26371;56.992;23.912;2024-01-30T11:50:14;3.20;99.90
40153;DHT22;26371;56.992;23.912;2024-01-30T11:52:43;3.10;99.90
40153;DHT22;26371;56.992;23.912;2024-01-30T11:55:11;3.20;99.90
40153;DHT22;26371;56.992;23.912;2024-01-30T11:57:40;3.20;99.90
40153;DHT22;26371;56.992;23.912;2024-01-30T12:00:15;3.20;99.90
40153;DHT22;26371;56.992;23.912;2024-01-30T12:02:48;3.20;99.90
40153;DHT22;26371;56.992;23.912;2024-01-30T12:05:18;3.20;99.90
40153;DHT22;26371;56.992;23.912;2024-01-30T12:07:47;3.20;99.90
40153;DHT22;26371;56.992;23.912;2024-01-30T12:10:16;3.20;99.90
40153;DHT22;26371;56.992;23.912;2024-01-30T12:12:45;3.20;99.90
40153;DHT22;26371;56.992;23.912;2024-01-30T12:15:16;3.20;99.90
40153;DHT22;26371;56.992;23.912;2024-01-30T12:17:44;3.20;99.90
40153;DHT22;26371;56.992;23.912;2024-01-30T12:20:14;3.20;99.90
40153;DHT22;26371;56.992;23.912;2024-01-30T12:22:43;3.20;99.90
40153;DHT22;26371;56.992;23.912;2024-01-30T12:25:14;3.20;99.90
40153;DHT22;26371;56.992;23.912;2024-01-30T12:27:43;3.30;99.90
40153;DHT22;26371;56.992;23.912;2024-01-30T12:30:13;3.30;99.90
40153;DHT22;26371;56.992;23.912;2024-01-30T12:32:44;3.30;99.90
40153;DHT22;26371;56.992;23.912;2024-01-30T12:35:14;3.30;99.90
40153;DHT22;26371;56.992;23.912;2024-01-30T12:37:43;3.30;99.90
40153;DHT22;26371;56.992;23.912;2024-01-30T12:40:11;3.20;99.90
40153;DHT22;26371;56.992;23.912;2024-01-30T12:42:42;3.10;99.90
40153;DHT22;26371;56.992;23.912;2024-01-30T12:45:13;3.10;99.90
40153;DHT22;26371;56.992;23.912;2024-01-30T12:47:43;3.00;99.90
40153;DHT22;26371;56.992;23.912;2024-01-30T12:50:11;2.90;99.90
40153;DHT22;26371;56.992;23.912;2024-01-30T12:52:42;2.90;99.90
40153;DHT22;26371;56.992;23.912;2024-01-30T12:55:15;2.90;99.90
40153;DHT22;26371;56.992;23.912;2024-01-30T12:57:44;2.90;99.90
40153;DHT22;26371;56.992;23.912;2024-01-30T13:00:13;2.90;99.90
40153;DHT22;26371;56.992;23.912;2024-01-30T13:02:46;2.90;99.90
40153;DHT22;26371;56.992;23.912;2024-01-30T13:05:15;2.90;99.90
40153;DHT22;26371;56.992;23.912;2024-01-30T13:07:44;2.80;99.90
40153;DHT22;26371;56.992;23.912;2024-01-30T13:10:13;2.80;99.90
40153;DHT22;26371;56.992;23.912;2024-01-30T13:12:42;2.80;99.90
40153;DHT22;26371;56.992;23.912;2024-01-30T13:15:10;2.80;99.90
40153;DHT22;26371;56.992;23.912;2024-01-30T13:17:39;2.80;99.90
40153;DHT22;26371;56.992;23.912;2024-01-30T13:20:11;2.80;99.90
40153;DHT22;26371;56.992;23.912;2024-01-30T13:22:41;2.80;99.90
40153;DHT22;26371;56.992;23.912;2024-01-30T13:25:11;2.70;99.90
40153;DHT22;26371;56.992;23.912;2024-01-30T13:27:40;2.80;99.90
40153;DHT22;26371;56.992;23.912;2024-01-30T13:30:09;2.80;99.90
40153;DHT22;26371;56.992;23.912;2024-01-30T13:32:38;2.80;99.90
40153;DHT22;26371;56.992;23.912;2024-01-30T13:35:08;2.80;99.90
40153;DHT22;26371;56.992;23.912;2024-01-30T13:37:38;2.70;99.90
40153;DHT22;26371;56.992;23.912;2024-01-30T13:40:09;2.70;99.90
40153;DHT22;26371;56.992;23.912;2024-01-30T13:42:40;2.70;99.90
40153;DHT22;26371;56.992;23.912;2024-01-30T13:45:08;2.70;99.90
40153;DHT22;26371;56.992;23.912;2024-01-30T13:47:38;2.70;99.90
40153;DHT22;26371;56.992;23.912;2024-01-30T13:50:06;2.70;99.90
40153;DHT22;26371;56.992;23.912;2024-01-30T13:52:38;2.70;99.90
40153;DHT22;26371;56.992;23.912;2024-01-30T13:55:11;2.70;99.90
40153;DHT22;26371;56.992;23.912;2024-01-30T13:57:40;2.70;99.90
40153;DHT22;26371;56.992;23.912;2024-01-30T14:00:09;2.70;99.90
40153;DHT22;26371;56.992;23.912;2024-01-30T14:02:41;2.60;99.90
40153;DHT22;26371;56.992;23.912;2024-01-30T14:05:10;2.60;99.90
40153;DHT22;26371;56.992;23.912;2024-01-30T14:07:40;2.50;99.90
40153;DHT22;26371;56.992;23.912;2024-01-30T14:10:11;2.50;99.90
40153;DHT22;26371;56.992;23.912;2024-01-30T14:12:42;2.50;99.90
40153;DHT22;26371;56.992;23.912;2024-01-30T14:15:12;2.40;99.90
40153;DHT22;26371;56.992;23.912;2024-01-30T14:17:54;2.40;99.90
40153;DHT22;26371;56.992;23.912;2024-01-30T14:20:23;2.40;99.90
40153;DHT22;26371;56.992;23.912;2024-01-30T14:22:53;2.40;99.90
40153;DHT22;26371;56.992;23.912;2024-01-30T14:25:23;2.40;99.90
40153;DHT22;26371;56.992;23.912;2024-01-30T14:27:52;2.40;99.90
40153;DHT22;26371;56.992;23.912;2024-01-30T14:30:21;2.40;99.90
40153;DHT22;26371;56.992;23.912;2024-01-30T14:32:49;2.40;99.90
40153;DHT22;26371;56.992;23.912;2024-01-30T14:35:18;2.40;99.90
40153;DHT22;26371;56.992;23.912;2024-01-30T14:37:47;2.30;99.90
40153;DHT22;26371;56.992;23.912;2024-01-30T14:40:19;2.30;99.90
40153;DHT22;26371;56.992;23.912;2024-01-30T14:42:48;2.30;99.90
40153;DHT22;26371;56.992;23.912;2024-01-30T14:45:16;2.30;99.90
40153;DHT22;26371;56.992;23.912;2024-01-30T14:47:45;2.20;99.90
40153;DHT22;26371;56.992;23.912;2024-01-30T14:50:14;2.20;99.90
40153;DHT22;26371;56.992;23.912;2024-01-30T14:52:44;2.20;99.90
40153;DHT22;26371;56.992;23.912;2024-01-30T14:55:12;2.20;99.90
40153;DHT22;26371;56.992;23.912;2024-01-30T14:57:42;2.20;99.90
40153;DHT22;26371;56.992;23.912;2024-01-30T15:00:13;2.10;99.90
40153;DHT22;26371;56.992;23.912;2024-01-30T15:02:43;2.10;99.90
40153;DHT22;26371;56.992;23.912;2024-01-30T15:05:14;2.00;99.90
40153;DHT22;26371;56.992;23.912;2024-01-30T15:07:42;2.00;99.90
40153;DHT22;26371;56.992;23.912;2024-01-30T15:10:11;2.00;99.90
40153;DHT22;26371;56.992;23.912;2024-01-30T15:12:41;2.00;99.90
40153;DHT22;26371;56.992;23.912;2024-01-30T15:15:10;2.00;99.90
40153;DHT22;26371;56.992;23.912;2024-01-30T15:17:38;2.10;99.90
40153;DHT22;26371;56.992;23.912;2024-01-30T15:20:09;2.10;99.90
40153;DHT22;26371;56.992;23.912;2024-01-30T15:22:38;2.10;99.90
40153;DHT22;26371;56.992;23.912;2024-01-30T15:25:07;2.00;99.90
40153;DHT22;26371;56.992;23.912;2024-01-30T15:27:36;2.00;99.90
40153;DHT22;26371;56.992;23.912;2024-01-30T15:30:07;2.00;99.90
40153;DHT22;26371;56.992;23.912;2024-01-30T15:32:36;2.00;99.90
40153;DHT22;26371;56.992;23.912;2024-01-30T15:35:04;1.90;99.90
40153;DHT22;26371;56.992;23.912;2024-01-30T15:37:33;1.90;99.90
40153;DHT22;26371;56.992;23.912;2024-01-30T15:40:02;1.90;99.90
40153;DHT22;26371;56.992;23.912;2024-01-30T15:42:33;1.90;99.90
40153;DHT22;26371;56.992;23.912;2024-01-30T15:45:02;2.00;99.90
40153;DHT22;26371;56.992;23.912;2024-01-30T15:47:32;1.90;99.90
40153;DHT22;26371;56.992;23.912;2024-01-30T15:50:00;1.90;99.90
40153;DHT22;26371;56.992;23.912;2024-01-30T15:52:29;1.90;99.90